Time;durP1;ratioP1;P1;durP2;ratioP2;P2;SDS_P1;SDS_P2;PMS_P1;PMS_P2;Temp;Humidity;BMP_temperature;BMP_pressure;BME280_temperature;BME280_humidity;BME280_pressure;Samples;Min_cycle;Max_cycle;Signal;HPM_P1;HPM_P2
2023/07/27 00:00:17;;;;;;;7.60;3.73;;;;;;;9.34;100.00;93954.84;4940469;29;20044;-68
2023/07/27 00:02:44;;;;;;;6.38;4.05;;;;;;;9.30;100.00;93949.38;4929047;29;20061;-69
2023/07/27 00:05:13;;;;;;;10.02;4.50;;;;;;;9.29;100.00;93947.81;4938646;29;20131;-68
2023/07/27 00:07:40;;;;;;;8.13;4.28;;;;;;;9.26;100.00;93948.66;4948596;29;20630;-69
2023/07/27 00:10:07;;;;;;;8.80;4.57;;;;;;;9.14;100.00;93946.41;4949898;28;20047;-67
2023/07/27 00:12:33;;;;;;;7.67;4.50;;;;;;;9.08;100.00;93946.06;4949150;29;20100;-67
2023/07/27 00:15:00;;;;;;;7.70;4.43;;;;;;;9.08;100.00;93946.06;4934029;29;20394;-67
2023/07/27 00:17:27;;;;;;;8.00;4.40;;;;;;;9.03;100.00;93948.47;4928272;29;20050;-68
2023/07/27 00:19:54;;;;;;;7.32;4.15;;;;;;;8.99;100.00;93945.75;4918773;29;20485;-67
2023/07/27 00:22:21;;;;;;;7.15;4.38;;;;;;;8.90;100.00;93948.97;4930960;29;20052;-69
2023/07/27 00:24:48;;;;;;;9.20;5.50;;;;;;;8.82;100.00;93938.50;4943148;28;20077;-67
2023/07/27 00:27:14;;;;;;;9.98;4.68;;;;;;;8.72;100.00;93946.38;4941164;29;20347;-68
2023/07/27 00:29:41;;;;;;;7.43;4.38;;;;;;;8.76;100.00;93949.09;4938291;29;20044;-69
2023/07/27 00:32:08;;;;;;;6.35;4.10;;;;;;;8.82;100.00;93942.00;4937864;29;20047;-68
2023/07/27 00:34:35;;;;;;;7.28;4.47;;;;;;;8.84;100.00;93941.59;4932936;29;20039;-69
2023/07/27 00:37:02;;;;;;;9.87;4.53;;;;;;;8.77;100.00;93945.16;4935518;29;20066;-68
2023/07/27 00:39:28;;;;;;;8.45;4.43;;;;;;;8.66;100.00;93937.03;4937340;29;20048;-67
2023/07/27 00:41:55;;;;;;;8.18;4.82;;;;;;;8.64;100.00;93935.88;4938034;29;20130;-69
2023/07/27 00:44:22;;;;;;;6.90;4.50;;;;;;;8.59;100.00;93926.94;4937425;29;20059;-69
2023/07/27 00:46:50;;;;;;;8.05;4.35;;;;;;;8.71;100.00;93922.94;4934860;29;20480;-68
2023/07/27 00:49:17;;;;;;;6.27;4.37;;;;;;;8.80;100.00;93928.72;4933150;29;20155;-70
2023/07/27 00:51:44;;;;;;;9.02;5.07;;;;;;;8.85;100.00;93918.50;4937740;29;20050;-67
2023/07/27 00:54:12;;;;;;;8.60;5.65;;;;;;;8.84;100.00;93927.91;4938225;29;20055;-68
2023/07/27 00:56:39;;;;;;;9.25;4.55;;;;;;;8.80;100.00;93915.03;4947965;29;20051;-68
2023/07/27 00:59:06;;;;;;;8.35;4.80;;;;;;;8.67;100.00;93918.66;4949259;29;20051;-69
2023/07/27 01:01:33;;;;;;;7.60;4.77;;;;;;;8.69;100.00;93924.50;4948255;29;20043;-68
2023/07/27 01:04:00;;;;;;;7.22;4.30;;;;;;;8.75;100.00;93920.94;4948175;28;20110;-69
2023/07/27 01:06:29;;;;;;;7.22;4.18;;;;;;;8.85;100.00;93918.50;4948477;29;20039;-68
2023/07/27 01:08:56;;;;;;;7.25;4.25;;;;;;;8.83;100.00;93912.66;4949276;29;20046;-69
2023/07/27 01:11:38;;;;;;;6.72;4.20;;;;;;;8.75;100.00;93909.22;4948444;29;20050;-68
2023/07/27 01:14:28;;;;;;;7.50;4.83;;;;;;;8.57;100.00;93912.88;4950301;28;20125;-68
2023/07/27 01:16:55;;;;;;;8.82;4.80;;;;;;;8.64;100.00;93914.78;4932417;29;20485;-67
2023/07/27 01:19:59;;;;;;;9.23;5.15;;;;;;;8.84;100.00;93909.53;4932395;29;20040;-68
2023/07/27 01:22:48;;;;;;;7.70;4.60;;;;;;;8.98;100.00;93903.91;4916702;29;20052;-69
2023/07/27 01:25:47;;;;;;;9.63;4.60;;;;;;;9.03;100.00;93905.44;4927896;29;20058;-68
2023/07/27 01:28:32;;;;;;;7.07;4.67;;;;;;;9.00;100.00;93890.59;4933114;29;20055;-67
2023/07/27 01:31:06;;;;;;;8.48;4.63;;;;;;;8.86;100.00;93903.66;4933274;29;20055;-67
2023/07/27 01:33:43;;;;;;;6.97;4.63;;;;;;;8.96;100.00;93894.56;4932511;29;20046;-69
2023/07/27 01:36:12;;;;;;;6.85;4.47;;;;;;;8.99;100.00;93894.53;4933050;29;20051;-68
2023/07/27 01:38:43;;;;;;;7.18;4.45;;;;;;;9.00;100.00;93884.38;4945913;28;20441;-68
2023/07/27 01:41:12;;;;;;;7.10;4.47;;;;;;;8.95;100.00;93882.06;4940769;29;20050;-68
2023/07/27 01:43:41;;;;;;;8.00;4.40;;;;;;;8.82;100.00;93881.78;4937909;29;21610;-68
2023/07/27 01:46:10;;;;;;;9.18;4.90;;;;;;;8.75;100.00;93887.31;4932734;29;20486;-68
2023/07/27 01:48:40;;;;;;;7.28;4.90;;;;;;;8.73;100.00;93884.22;4940263;29;20139;-68
2023/07/27 01:51:10;;;;;;;8.32;4.63;;;;;;;8.74;100.00;93878.34;4940019;29;20047;-68
2023/07/27 01:53:40;;;;;;;8.03;4.40;;;;;;;8.82;100.00;93875.56;4935406;29;20500;-68
2023/07/27 01:56:08;;;;;;;7.20;4.50;;;;;;;8.83;100.00;93871.63;4936951;29;20056;-68
2023/07/27 01:58:36;;;;;;;7.05;4.72;;;;;;;8.80;100.00;93873.22;4940094;29;20048;-68
2023/07/27 02:01:03;;;;;;;8.43;4.70;;;;;;;8.75;100.00;93868.16;4940504;29;20047;-69
2023/07/27 02:03:30;;;;;;;8.30;4.60;;;;;;;8.74;100.00;93859.19;4939793;29;20067;-69
2023/07/27 02:06:00;;;;;;;8.03;4.70;;;;;;;8.72;100.00;93866.25;4938714;29;20177;-68
2023/07/27 02:08:27;;;;;;;7.35;4.95;;;;;;;8.64;100.00;93864.75;4934967;29;20383;-69
2023/07/27 02:11:04;;;;;;;7.35;5.30;;;;;;;8.53;100.00;93857.44;4938355;29;20054;-68
2023/07/27 02:13:51;;;;;;;9.70;5.72;;;;;;;8.47;100.00;93853.56;4939799;29;20046;-68
2023/07/27 02:16:23;;;;;;;8.35;5.47;;;;;;;8.29;100.00;93850.94;4939383;28;20043;-67
2023/07/27 02:18:53;;;;;;;10.10;5.50;;;;;;;8.20;100.00;93850.63;4940603;29;20052;-70
2023/07/27 02:21:21;;;;;;;9.05;5.60;;;;;;;8.25;100.00;93847.47;4931961;29;20069;-68
2023/07/27 02:23:48;;;;;;;10.77;6.10;;;;;;;8.27;100.00;93838.84;4920782;29;20058;-67
2023/07/27 02:26:15;;;;;;;9.75;5.65;;;;;;;8.35;100.00;93837.59;4934401;29;20058;-68
2023/07/27 02:28:42;;;;;;;10.15;5.55;;;;;;;8.47;100.00;93834.44;4939222;28;20417;-67
2023/07/27 02:31:09;;;;;;;9.77;5.70;;;;;;;8.62;100.00;93826.09;4940242;29;20047;-68
2023/07/27 02:33:36;;;;;;;9.65;5.60;;;;;;;8.67;100.00;93822.91;4939498;29;20591;-68
2023/07/27 02:36:02;;;;;;;8.93;5.68;;;;;;;8.73;100.00;93824.00;4938332;29;20057;-68
2023/07/27 02:38:29;;;;;;;9.27;5.80;;;;;;;8.54;100.00;93826.16;4948365;29;20042;-69
2023/07/27 02:40:56;;;;;;;10.07;6.03;;;;;;;8.37;100.00;93827.03;4937832;28;20451;-68
2023/07/27 02:43:23;;;;;;;8.63;5.60;;;;;;;8.39;100.00;93827.41;4961705;28;20117;-68
2023/07/27 02:45:49;;;;;;;12.07;6.07;;;;;;;8.60;100.00;93821.78;4936641;29;20053;-68
2023/07/27 02:48:17;;;;;;;9.40;6.03;;;;;;;8.67;100.00;93828.38;4930775;29;20070;-69
2023/07/27 02:50:50;;;;;;;9.38;6.15;;;;;;;8.78;100.00;93818.13;4938796;29;20427;-68
2023/07/27 02:53:17;;;;;;;9.25;5.90;;;;;;;8.85;100.00;93817.25;4930272;29;20489;-68
2023/07/27 02:55:58;;;;;;;9.27;6.03;;;;;;;8.69;100.00;93818.59;4938632;29;20055;-68
2023/07/27 02:58:25;;;;;;;10.73;6.07;;;;;;;8.71;100.00;93818.97;4938873;29;20385;-71
2023/07/27 03:00:54;;;;;;;10.80;6.22;;;;;;;8.60;100.00;93823.75;4924202;29;20059;-68
2023/07/27 03:03:21;;;;;;;9.85;6.35;;;;;;;8.57;100.00;93821.81;4931109;29;20048;-68
2023/07/27 03:05:55;;;;;;;10.43;6.65;;;;;;;8.70;100.00;93820.16;4920453;29;20105;-68
2023/07/27 03:08:22;;;;;;;10.80;6.50;;;;;;;8.75;100.00;93819.72;4928667;29;20659;-69
2023/07/27 03:10:48;;;;;;;10.65;6.43;;;;;;;8.79;100.00;93806.78;4931201;29;20067;-68
2023/07/27 03:13:15;;;;;;;11.40;6.60;;;;;;;8.78;100.00;93807.94;4927871;29;20043;-67
2023/07/27 03:15:42;;;;;;;10.10;6.63;;;;;;;8.87;100.00;93812.94;4929878;29;20047;-68
2023/07/27 03:18:09;;;;;;;18.02;10.80;;;;;;;8.94;100.00;93807.38;4938896;29;20043;-68
2023/07/27 03:20:42;;;;;;;11.20;7.30;;;;;;;8.95;100.00;93803.47;4935388;29;20056;-70
2023/07/27 03:23:09;;;;;;;10.77;6.00;;;;;;;8.87;100.00;93817.63;4920216;29;20468;-69
2023/07/27 03:25:37;;;;;;;11.13;6.30;;;;;;;8.73;100.00;93813.88;4931597;29;20058;-68
2023/07/27 03:28:06;;;;;;;10.80;6.25;;;;;;;8.73;100.00;93811.13;4935559;29;20054;-67
2023/07/27 03:30:38;;;;;;;10.02;6.70;;;;;;;8.69;100.00;93815.06;4936977;29;20052;-68
2023/07/27 03:33:06;;;;;;;11.73;6.07;;;;;;;8.65;100.00;93809.63;4943518;28;20055;-69
2023/07/27 03:35:34;;;;;;;10.43;6.20;;;;;;;8.80;100.00;93810.28;4938120;29;20066;-69
2023/07/27 03:38:02;;;;;;;9.40;6.03;;;;;;;8.88;100.00;93813.72;4936201;29;20452;-68
2023/07/27 03:40:29;;;;;;;10.13;6.22;;;;;;;8.88;100.00;93806.28;4941529;29;20515;-69
2023/07/27 03:42:56;;;;;;;9.85;6.03;;;;;;;8.89;100.00;93807.06;4936387;29;20049;-67
2023/07/27 03:45:22;;;;;;;9.23;5.90;;;;;;;8.89;100.00;93796.88;4938002;29;20148;-68
2023/07/27 03:47:49;;;;;;;10.32;5.82;;;;;;;8.96;100.00;93799.53;4938521;29;20042;-68
2023/07/27 03:50:16;;;;;;;9.55;6.30;;;;;;;8.98;100.00;93791.69;4929729;29;20051;-71
2023/07/27 03:52:43;;;;;;;9.35;5.90;;;;;;;9.00;100.00;93788.56;4938580;29;20043;-69
2023/07/27 03:55:10;;;;;;;9.30;6.20;;;;;;;9.02;100.00;93782.69;4938368;29;20068;-67
2023/07/27 03:57:36;;;;;;;9.40;5.53;;;;;;;9.05;100.00;93779.88;4933432;29;20477;-67
2023/07/27 04:00:05;;;;;;;10.25;6.00;;;;;;;8.99;100.00;93776.06;4934952;29;20492;-68
2023/07/27 04:02:31;;;;;;;9.48;6.15;;;;;;;8.94;100.00;93771.03;4946422;29;20059;-68
2023/07/27 04:04:58;;;;;;;9.90;6.18;;;;;;;8.92;100.00;93781.63;4930834;29;20110;-68
2023/07/27 04:07:25;;;;;;;10.98;6.30;;;;;;;9.01;100.00;93781.88;4938205;29;20061;-68
2023/07/27 04:09:52;;;;;;;8.27;5.50;;;;;;;8.96;100.00;93783.13;4922753;29;20417;-69
2023/07/27 04:12:18;;;;;;;10.40;5.90;;;;;;;8.97;100.00;93781.16;4934502;29;20062;-67
2023/07/27 04:14:45;;;;;;;9.95;6.28;;;;;;;9.00;100.00;93778.38;4943925;28;20040;-68
2023/07/27 04:17:12;;;;;;;9.73;5.70;;;;;;;9.11;100.00;93778.25;4938024;29;20460;-67
2023/07/27 04:19:39;;;;;;;9.50;5.75;;;;;;;9.24;100.00;93775.75;4948353;29;20651;-69
2023/07/27 04:22:05;;;;;;;10.03;5.73;;;;;;;9.40;100.00;93764.22;4942367;28;20079;-68
2023/07/27 04:24:32;;;;;;;10.02;6.18;;;;;;;9.36;100.00;93764.25;4947928;28;20403;-69
2023/07/27 04:26:59;;;;;;;11.25;6.72;;;;;;;9.36;100.00;93768.97;4949581;29;20077;-68
2023/07/27 04:29:26;;;;;;;10.85;6.38;;;;;;;9.29;100.00;93772.56;4948693;29;20044;-68
2023/07/27 04:31:52;;;;;;;9.93;6.25;;;;;;;9.44;100.00;93772.38;4948001;28;20054;-72
2023/07/27 04:34:19;;;;;;;9.73;6.13;;;;;;;9.57;100.00;93771.41;4949004;28;20043;-68
2023/07/27 04:36:48;;;;;;;9.73;5.63;;;;;;;9.78;100.00;93778.56;4935610;29;20458;-67
2023/07/27 04:39:15;;;;;;;10.27;6.25;;;;;;;9.73;100.00;93773.53;4930036;29;20382;-68
2023/07/27 04:41:42;;;;;;;11.55;5.80;;;;;;;9.63;100.00;93776.44;4937396;29;20118;-67
2023/07/27 04:44:09;;;;;;;10.38;5.68;;;;;;;9.52;100.00;93780.09;4937888;29;20056;-67
2023/07/27 04:46:35;;;;;;;11.77;6.23;;;;;;;9.59;100.00;93771.00;4937366;28;20647;-68
2023/07/27 04:49:03;;;;;;;9.30;5.72;;;;;;;9.73;100.00;93776.28;4937761;29;20059;-69
2023/07/27 04:51:29;;;;;;;11.15;6.13;;;;;;;10.03;100.00;93779.38;4936521;29;20047;-67
2023/07/27 04:53:56;;;;;;;10.25;5.90;;;;;;;10.32;100.00;93783.25;4941240;29;20043;-67
2023/07/27 04:56:23;;;;;;;10.07;6.30;;;;;;;10.60;100.00;93778.44;4924954;29;20047;-67
2023/07/27 04:58:50;;;;;;;10.30;5.33;;;;;;;10.85;100.00;93782.75;4933482;29;20046;-68
2023/07/27 05:01:16;;;;;;;8.95;5.13;;;;;;;10.78;100.00;93767.16;4933114;29;20046;-68
2023/07/27 05:03:43;;;;;;;7.93;5.20;;;;;;;10.55;100.00;93765.22;4931795;29;20050;-70
2023/07/27 05:06:10;;;;;;;9.98;5.72;;;;;;;10.61;100.00;93771.03;4933446;29;20047;-67
2023/07/27 05:08:37;;;;;;;8.68;5.40;;;;;;;10.70;100.00;93766.50;4940766;29;20069;-70
2023/07/27 05:11:08;;;;;;;10.23;5.10;;;;;;;10.78;100.00;93770.69;4941380;29;20035;-67
2023/07/27 05:13:35;;;;;;;8.45;4.90;;;;;;;10.96;100.00;93764.06;4931790;29;20389;-67
2023/07/27 05:16:02;;;;;;;7.50;4.70;;;;;;;11.10;100.00;93765.78;4941284;29;20162;-67
2023/07/27 05:18:29;;;;;;;6.90;4.40;;;;;;;11.19;100.00;93761.28;4940564;28;20047;-67
2023/07/27 05:20:56;;;;;;;6.65;4.28;;;;;;;11.36;100.00;93764.84;4938347;29;20113;-68
2023/07/27 05:23:23;;;;;;;7.80;4.10;;;;;;;11.54;100.00;93760.94;4936317;29;20104;-68
2023/07/27 05:25:50;;;;;;;7.10;4.20;;;;;;;11.65;100.00;93757.97;4939315;28;20383;-67
2023/07/27 05:28:17;;;;;;;6.43;3.85;;;;;;;11.88;100.00;93757.06;4940384;29;20056;-69
2023/07/27 05:30:44;;;;;;;6.70;3.85;;;;;;;11.87;100.00;93752.75;4941119;29;20040;-68
2023/07/27 05:33:11;;;;;;;7.03;4.40;;;;;;;11.97;100.00;93754.53;4940876;29;20362;-68
2023/07/27 05:35:37;;;;;;;9.17;4.00;;;;;;;12.20;100.00;93750.84;4935290;29;20047;-69
2023/07/27 05:38:04;;;;;;;7.90;3.95;;;;;;;12.22;100.00;93755.94;4937580;29;20139;-67
2023/07/27 05:40:35;;;;;;;6.60;4.05;;;;;;;12.36;100.00;93753.59;4940750;29;20114;-69
2023/07/27 05:43:02;;;;;;;6.90;3.97;;;;;;;12.38;100.00;93744.91;4940696;29;20215;-69
2023/07/27 05:45:28;;;;;;;8.63;4.18;;;;;;;12.25;100.00;93744.03;4940374;29;20055;-68
2023/07/27 05:47:55;;;;;;;6.40;4.03;;;;;;;12.35;100.00;93737.50;4938185;29;20058;-68
2023/07/27 05:50:22;;;;;;;6.65;3.85;;;;;;;12.40;100.00;93745.25;4935662;29;20051;-67
2023/07/27 05:52:49;;;;;;;6.10;3.85;;;;;;;12.44;100.00;93748.69;4938954;29;20043;-68
2023/07/27 05:55:16;;;;;;;6.07;3.40;;;;;;;12.77;100.00;93741.13;4936215;29;20078;-71
2023/07/27 05:57:42;;;;;;;5.57;3.65;;;;;;;12.89;100.00;93738.88;4950342;28;20040;-69
2023/07/27 06:00:10;;;;;;;5.17;3.50;;;;;;;12.97;100.00;93734.72;4930550;29;20056;-69
2023/07/27 06:02:36;;;;;;;5.65;3.60;;;;;;;13.21;100.00;93726.19;4921286;29;20048;-69
2023/07/27 06:05:04;;;;;;;5.65;3.42;;;;;;;13.32;100.00;93727.47;4919631;29;20052;-69
2023/07/27 06:07:31;;;;;;;6.25;3.30;;;;;;;13.39;100.00;93727.25;4940212;29;20115;-69
2023/07/27 06:09:58;;;;;;;5.25;3.35;;;;;;;13.37;100.00;93739.94;4940031;29;20090;-71
2023/07/27 06:12:25;;;;;;;5.43;3.27;;;;;;;13.18;100.00;93733.38;4939890;29;20043;-70
2023/07/27 06:14:52;;;;;;;6.90;3.50;;;;;;;13.26;100.00;93737.47;4928476;29;20044;-70
2023/07/27 06:17:19;;;;;;;5.43;3.38;;;;;;;13.12;100.00;93735.09;4920775;29;20071;-70
2023/07/27 06:19:46;;;;;;;6.05;3.35;;;;;;;13.14;100.00;93738.97;4921000;29;20082;-69
2023/07/27 06:22:13;;;;;;;8.55;3.70;;;;;;;13.05;100.00;93741.56;4921179;29;20431;-69
2023/07/27 06:24:40;;;;;;;5.30;3.10;;;;;;;13.14;100.00;93738.97;4936849;29;20456;-72
2023/07/27 06:27:07;;;;;;;5.82;3.30;;;;;;;12.89;100.00;93744.38;4932614;29;20446;-71
2023/07/27 06:29:33;;;;;;;5.72;3.47;;;;;;;13.10;100.00;93740.25;4919352;29;20059;-71
2023/07/27 06:32:00;;;;;;;6.85;4.05;;;;;;;13.29;100.00;93742.13;4926039;29;20052;-74
2023/07/27 06:34:28;;;;;;;5.63;3.35;;;;;;;13.50;100.00;93729.72;4927094;29;20052;-70
2023/07/27 06:36:55;;;;;;;5.70;3.20;;;;;;;13.47;100.00;93733.34;4929775;29;20047;-69
2023/07/27 06:39:21;;;;;;;4.93;3.08;;;;;;;13.51;100.00;93739.50;4929676;29;20457;-70
2023/07/27 06:41:48;;;;;;;5.50;3.20;;;;;;;13.51;100.00;93736.00;4932319;29;20070;-69
2023/07/27 06:44:15;;;;;;;7.85;3.30;;;;;;;13.28;100.00;93732.28;4928807;29;20044;-70
2023/07/27 06:46:42;;;;;;;5.53;3.45;;;;;;;13.23;100.00;93740.31;4929322;29;20405;-69
2023/07/27 06:49:10;;;;;;;5.70;3.53;;;;;;;13.21;100.00;93732.47;4930937;29;20051;-69
2023/07/27 06:51:37;;;;;;;5.60;3.30;;;;;;;13.19;100.00;93735.66;4934532;29;20051;-71
2023/07/27 06:54:04;;;;;;;5.95;3.33;;;;;;;13.38;100.00;93733.19;4936348;29;20485;-69
2023/07/27 06:56:31;;;;;;;6.13;3.40;;;;;;;13.49;100.00;93736.41;4939716;29;20048;-70
2023/07/27 06:58:58;;;;;;;5.60;3.72;;;;;;;13.63;100.00;93745.50;4939020;28;20058;-71
2023/07/27 07:01:25;;;;;;;5.17;3.53;;;;;;;13.64;100.00;93731.25;4922543;29;20182;-70
2023/07/27 07:03:52;;;;;;;5.25;3.50;;;;;;;13.71;100.00;93739.31;4919148;29;20060;-69
2023/07/27 07:06:19;;;;;;;5.82;3.72;;;;;;;13.76;100.00;93738.78;4932745;29;20062;-69
2023/07/27 07:08:47;;;;;;;5.65;3.65;;;;;;;13.77;100.00;93737.56;4945442;28;20057;-69
2023/07/27 07:11:14;;;;;;;5.80;3.60;;;;;;;13.75;100.00;93734.47;4939370;28;20110;-69
2023/07/27 07:13:41;;;;;;;5.60;3.30;;;;;;;13.69;100.00;93727.19;4935311;29;20069;-69
2023/07/27 07:16:08;;;;;;;6.82;3.67;;;;;;;13.79;100.00;93731.59;4930436;29;20043;-70
2023/07/27 07:18:34;;;;;;;6.75;3.53;;;;;;;13.83;100.00;93734.25;4939142;29;20055;-69
2023/07/27 07:21:01;;;;;;;5.65;3.33;;;;;;;13.87;100.00;93730.16;4940042;29;20079;-68
2023/07/27 07:23:28;;;;;;;6.13;3.75;;;;;;;13.62;100.00;93728.16;4927231;29;20047;-70
2023/07/27 07:25:55;;;;;;;5.37;3.60;;;;;;;13.74;100.00;93730.19;4931349;29;20044;-69
2023/07/27 07:28:22;;;;;;;5.55;3.22;;;;;;;13.95;100.00;93722.44;4931310;29;20102;-69
2023/07/27 07:30:50;;;;;;;5.00;3.60;;;;;;;13.69;100.00;93719.69;4931531;29;20228;-70
2023/07/27 07:33:16;;;;;;;5.10;3.30;;;;;;;13.61;100.00;93725.88;4930948;29;20078;-69
2023/07/27 07:35:43;;;;;;;7.18;3.67;;;;;;;13.53;100.00;93726.06;4931411;29;20060;-69
2023/07/27 07:38:10;;;;;;;5.20;3.50;;;;;;;13.73;100.00;93722.34;4931647;29;20069;-69
2023/07/27 07:40:36;;;;;;;5.70;3.58;;;;;;;13.65;100.00;93721.78;4930756;29;20043;-70
2023/07/27 07:43:03;;;;;;;7.28;3.72;;;;;;;13.61;100.00;93720.34;4931185;29;20513;-69
2023/07/27 07:45:33;;;;;;;6.68;3.70;;;;;;;13.46;100.00;93711.72;4930436;29;20044;-70
2023/07/27 07:48:00;;;;;;;6.30;3.72;;;;;;;13.58;100.00;93714.50;4931082;29;20043;-70
2023/07/27 07:50:26;;;;;;;6.40;3.80;;;;;;;13.45;100.00;93715.69;4930685;29;20052;-69
2023/07/27 07:52:53;;;;;;;5.72;3.20;;;;;;;13.58;100.00;93702.69;4930657;29;20458;-69
2023/07/27 07:55:22;;;;;;;6.43;4.00;;;;;;;13.84;100.00;93697.94;4930352;29;20040;-68
2023/07/27 07:57:48;;;;;;;8.93;3.65;;;;;;;13.84;100.00;93691.66;4930953;29;20050;-69
2023/07/27 08:00:16;;;;;;;6.30;4.00;;;;;;;14.06;100.00;93695.28;4928948;29;20155;-69
2023/07/27 08:02:42;;;;;;;6.17;3.80;;;;;;;13.93;100.00;93689.03;4913447;29;20397;-70
2023/07/27 08:05:09;;;;;;;6.53;3.80;;;;;;;13.97;100.00;93682.16;4923352;29;20457;-69
2023/07/27 08:07:36;;;;;;;6.07;3.80;;;;;;;14.16;100.00;93679.59;4930617;29;20047;-71
2023/07/27 08:10:04;;;;;;;6.60;3.60;;;;;;;14.47;100.00;93682.50;4930818;29;20048;-68
2023/07/27 08:12:31;;;;;;;6.70;4.07;;;;;;;14.43;100.00;93683.81;4930250;29;20063;-69
2023/07/27 08:14:58;;;;;;;8.50;4.07;;;;;;;14.26;100.00;93683.22;4917889;29;20420;-69
2023/07/27 08:17:28;;;;;;;9.88;4.45;;;;;;;14.37;100.00;93689.16;4924591;29;20473;-70
2023/07/27 08:19:55;;;;;;;7.35;4.63;;;;;;;14.25;100.00;93674.19;4938737;29;20058;-69
2023/07/27 08:22:23;;;;;;;7.30;4.38;;;;;;;14.35;100.00;93675.81;4938389;29;20111;-69
2023/07/27 08:24:50;;;;;;;8.15;3.92;;;;;;;14.30;100.00;93673.59;4937784;29;20047;-70
2023/07/27 08:27:26;;;;;;;6.30;4.00;;;;;;;14.32;100.00;93671.16;4936238;29;20504;-69
2023/07/27 08:29:52;;;;;;;6.95;3.60;;;;;;;14.11;100.00;93678.16;4927500;29;20049;-68
2023/07/27 08:32:19;;;;;;;5.60;3.60;;;;;;;14.14;100.00;93679.25;4942018;29;20401;-67
2023/07/27 08:34:46;;;;;;;5.47;3.70;;;;;;;14.30;100.00;93673.59;4943108;29;20048;-67
2023/07/27 08:37:12;;;;;;;7.78;3.70;;;;;;;14.78;100.00;93666.06;4945883;28;20365;-69
2023/07/27 08:39:39;;;;;;;6.03;3.60;;;;;;;15.55;100.00;93664.84;4941776;29;20039;-68
2023/07/27 08:42:07;;;;;;;7.72;3.30;;;;;;;15.79;100.00;93665.13;4941284;29;20523;-67
2023/07/27 08:44:34;;;;;;;7.05;3.63;;;;;;;16.35;100.00;93666.06;4937535;29;20057;-69
2023/07/27 08:47:02;;;;;;;5.82;3.10;;;;;;;16.03;100.00;93664.59;4939115;28;20055;-67
2023/07/27 08:49:30;;;;;;;5.53;3.78;;;;;;;16.12;100.00;93646.00;4941429;29;20043;-67
2023/07/27 08:51:57;;;;;;;5.03;3.33;;;;;;;15.88;100.00;93647.81;4927704;29;20047;-67
2023/07/27 08:54:24;;;;;;;5.38;3.50;;;;;;;15.88;100.00;93654.09;4941581;29;20055;-67
2023/07/27 08:56:51;;;;;;;5.63;3.50;;;;;;;16.11;100.00;93660.31;4938188;29;20641;-67
2023/07/27 08:59:17;;;;;;;5.30;3.20;;;;;;;15.98;100.00;93655.66;4932790;29;20401;-67
2023/07/27 09:01:44;;;;;;;5.70;3.13;;;;;;;15.82;100.00;93655.94;4941208;29;20115;-69
2023/07/27 09:04:11;;;;;;;6.23;3.70;;;;;;;16.43;100.00;93653.44;4917199;29;20050;-67
2023/07/27 09:06:48;;;;;;;5.97;3.42;;;;;;;16.20;100.00;93656.78;4933359;29;21597;-69
2023/07/27 09:09:18;;;;;;;4.82;3.58;;;;;;;16.32;100.00;93659.44;4941732;29;20047;-66
2023/07/27 09:11:46;;;;;;;4.88;3.40;;;;;;;16.35;100.00;93672.34;4938009;29;20039;-69
2023/07/27 09:14:16;;;;;;;6.60;3.45;;;;;;;16.21;100.00;93663.88;4937461;29;20052;-67
2023/07/27 09:16:44;;;;;;;4.90;3.43;;;;;;;16.38;100.00;93665.91;4939492;29;20762;-68
2023/07/27 09:19:11;;;;;;;5.68;3.80;;;;;;;15.78;100.00;93666.38;4923637;29;20061;-67
2023/07/27 09:21:46;;;;;;;7.30;3.97;;;;;;;15.65;100.00;93657.34;4923875;29;20041;-67
2023/07/27 09:24:16;;;;;;;6.25;3.72;;;;;;;16.06;100.00;93647.84;4937221;29;20446;-67
2023/07/27 09:26:46;;;;;;;6.70;4.30;;;;;;;15.97;100.00;93642.28;4951736;28;20122;-69
2023/07/27 09:29:19;;;;;;;6.07;3.60;;;;;;;16.09;100.00;93637.84;4941849;29;20538;-68
2023/07/27 09:31:54;;;;;;;5.93;3.38;;;;;;;16.21;100.00;93630.66;4940237;29;21436;-71
2023/07/27 09:34:21;;;;;;;7.22;3.60;;;;;;;16.65;100.00;93624.84;4930809;29;20047;-68
2023/07/27 09:36:48;;;;;;;4.72;3.20;;;;;;;17.03;100.00;93627.13;4940025;29;20054;-69
2023/07/27 09:39:15;;;;;;;5.75;3.30;;;;;;;17.43;100.00;93617.03;4940704;29;20056;-69
2023/07/27 09:41:43;;;;;;;5.67;3.20;;;;;;;17.39;100.00;93611.66;4941576;29;20039;-68
2023/07/27 09:44:15;;;;;;;4.35;3.03;;;;;;;17.47;100.00;93617.63;4940994;29;20121;-68
2023/07/27 09:46:45;;;;;;;6.22;3.05;;;;;;;16.67;100.00;93623.13;4929983;29;20110;-68
2023/07/27 09:49:13;;;;;;;4.95;3.05;;;;;;;17.09;100.00;93613.44;4937261;29;20528;-69
2023/07/27 09:51:41;;;;;;;4.53;3.28;;;;;;;17.34;100.00;93609.50;4938593;29;21025;-68
2023/07/27 09:54:08;;;;;;;6.17;3.33;;;;;;;16.53;100.00;93616.19;4933368;29;20051;-68
2023/07/27 09:56:35;;;;;;;4.43;2.85;;;;;;;16.94;100.00;93591.91;4932577;29;20497;-68
2023/07/27 09:59:02;;;;;;;5.15;3.30;;;;;;;17.41;100.00;93586.22;4932322;29;20052;-69
2023/07/27 10:01:28;;;;;;;4.93;3.40;;;;;;;17.75;100.00;93587.78;4939806;29;20053;-69
2023/07/27 10:03:58;;;;;;;6.30;3.10;;;;;;;18.75;100.00;93582.00;4945503;29;20047;-68
2023/07/27 10:06:26;;;;;;;5.13;3.00;;;;;;;18.72;100.00;93583.72;4935511;29;20078;-68
2023/07/27 10:08:54;;;;;;;5.68;3.20;;;;;;;18.94;100.00;93569.50;4959610;28;20055;-69
2023/07/27 10:11:30;;;;;;;5.78;3.15;;;;;;;19.74;100.00;93574.38;4940698;29;20047;-70
2023/07/27 10:14:15;;;;;;;5.88;3.40;;;;;;;19.07;100.00;93569.22;4938386;29;20082;-69
2023/07/27 10:17:00;;;;;;;4.68;3.05;;;;;;;18.97;100.00;93567.78;4939250;29;21633;-68
2023/07/27 10:19:50;;;;;;;4.80;3.37;;;;;;;18.69;100.00;93570.00;4922037;29;20044;-70
2023/07/27 10:22:18;;;;;;;6.28;3.30;;;;;;;18.30;100.00;93573.56;4933675;29;20055;-68
2023/07/27 10:24:46;;;;;;;5.13;3.25;;;;;;;18.73;100.00;93576.94;4917165;29;20056;-68
2023/07/27 10:27:13;;;;;;;4.82;3.38;;;;;;;18.22;100.00;93569.63;4940475;29;20043;-68
2023/07/27 10:29:45;;;;;;;4.90;3.30;;;;;;;18.48;100.00;93580.25;4932183;29;20044;-68
2023/07/27 10:32:13;;;;;;;5.57;3.40;;;;;;;18.71;100.00;93581.41;4931981;29;20062;-68
2023/07/27 10:34:41;;;;;;;5.47;3.50;;;;;;;18.33;100.00;93575.41;4945304;28;21517;-69
2023/07/27 10:37:13;;;;;;;5.20;3.78;;;;;;;18.70;100.00;93575.09;4939061;29;20058;-68
2023/07/27 10:39:45;;;;;;;5.65;3.33;;;;;;;18.95;100.00;93578.59;4945184;29;20557;-69
2023/07/27 10:42:23;;;;;;;6.20;3.88;;;;;;;18.65;100.00;93575.78;4939209;29;20047;-68
2023/07/27 10:44:51;;;;;;;6.10;3.30;;;;;;;18.21;100.00;93579.19;4950097;29;20766;-71
2023/07/27 10:47:27;;;;;;;5.40;3.50;;;;;;;18.19;100.00;93573.34;4950286;28;20043;-68
2023/07/27 10:49:56;;;;;;;5.85;3.80;;;;;;;18.92;100.00;93576.78;4951066;28;20113;-69
2023/07/27 10:52:27;;;;;;;6.13;3.80;;;;;;;18.94;100.00;93574.31;4950555;29;20113;-69
2023/07/27 10:54:59;;;;;;;7.50;3.80;;;;;;;18.73;100.00;93578.94;4950452;29;20102;-68
2023/07/27 10:57:27;;;;;;;6.60;3.67;;;;;;;18.87;100.00;93580.22;4950167;29;20054;-68
2023/07/27 10:59:54;;;;;;;5.45;3.40;;;;;;;18.89;100.00;93564.59;4950642;29;20045;-68
2023/07/27 11:02:27;;;;;;;5.57;3.80;;;;;;;19.23;100.00;93567.19;4950593;28;20059;-68
2023/07/27 11:04:56;;;;;;;5.97;3.17;;;;;;;19.48;100.00;93566.59;4950934;29;20047;-67
2023/07/27 11:07:32;;;;;;;6.35;3.22;;;;;;;19.71;100.00;93564.94;4950402;28;20058;-70
2023/07/27 11:10:12;;;;;;;4.20;2.90;;;;;;;19.83;100.00;93565.88;4945044;29;20043;-70
2023/07/27 11:12:50;;;;;;;5.00;2.78;;;;;;;20.22;99.11;93560.09;4934193;29;20710;-71
2023/07/27 11:15:24;;;;;;;6.20;3.10;;;;;;;20.46;99.01;93557.06;4934258;29;20405;-67
2023/07/27 11:17:55;;;;;;;5.60;2.92;;;;;;;20.77;95.20;93552.13;4930380;29;20122;-68
2023/07/27 11:20:25;;;;;;;5.82;2.90;;;;;;;20.86;93.68;93551.97;4920479;29;20130;-67
2023/07/27 11:22:55;;;;;;;6.70;3.00;;;;;;;20.98;91.41;93561.97;4915592;28;20066;-70
2023/07/27 11:25:22;;;;;;;4.15;3.03;;;;;;;20.60;93.01;93557.50;4950195;29;20047;-67
2023/07/27 11:27:51;;;;;;;5.57;2.78;;;;;;;20.64;94.26;93566.44;4950686;28;20063;-68
2023/07/27 11:30:21;;;;;;;4.10;2.95;;;;;;;20.65;94.66;93557.56;4950113;29;20051;-67
2023/07/27 11:33:02;;;;;;;5.00;2.80;;;;;;;21.38;91.48;93545.59;4938814;29;20058;-67